Judith Gap, Montana
Current Conditions -  °F | °C
As of 5:54 PM on Monday 22 Dec 2014 (Local Time) from KLWT Reporting Station
Overcast Overcast  
Wind Chill: 24°   Ceiling: 5500
Heat Index: 31°   Visibility: 10mi
Dew Point: 23°   Wind: 7mph
Humidity: 72%   Direction: 280°W
Pressure: 30.01"   Gusts: NA
Location:  46.68°N, 109.75°W
Report Text: KLWT 230054Z AUTO 28006KT 10SM BKN055 OVC095 M01/M05 A3001 RMK AO2 SLP186 T10061050
Loading
Personal Weather Stations






























Interactive Weather Map New forecast layout! Learn more

10-Day Weather Forecast

Advertisements
Track Severe Weather on mobile